Time;durP1;ratioP1;P1;durP2;ratioP2;P2;SDS_P1;SDS_P2;PMS_P1;PMS_P2;Temp;Humidity;BMP_temperature;BMP_pressure;BME280_temperature;BME280_humidity;BME280_pressure;Samples;Min_cycle;Max_cycle;Signal;HPM_P1;HPM_P2
2022/01/03 00:03:03;;;;;;;1.85;0.63;;;11.30;98.40;;;;;;9179405;19;20022;-74
2022/01/03 00:06:12;;;;;;;1.42;0.70;;;11.30;98.40;;;;;;9178945;19;20022;-75
2022/01/03 00:09:17;;;;;;;1.48;0.68;;;11.30;98.40;;;;;;9178629;19;20030;-74
2022/01/03 00:12:24;;;;;;;1.38;0.68;;;11.30;98.40;;;;;;9179131;19;20026;-74
2022/01/03 00:15:30;;;;;;;1.38;0.70;;;11.30;98.40;;;;;;9178404;19;20019;-74
2022/01/03 00:18:35;;;;;;;0.95;0.50;;;11.30;98.40;;;;;;9179447;19;20078;-74
2022/01/03 00:21:48;;;;;;;1.27;0.75;;;11.30;98.40;;;;;;9178890;19;20042;-75
2022/01/03 00:25:02;;;;;;;0.93;0.45;;;11.30;98.40;;;;;;9179164;19;20033;-73
2022/01/03 00:28:14;;;;;;;1.33;0.63;;;11.30;98.40;;;;;;9180952;19;20022;-73
2022/01/03 00:31:21;;;;;;;1.90;0.80;;;11.30;98.40;;;;;;9179122;19;20051;-74
2022/01/03 00:34:29;;;;;;;0.95;0.35;;;11.30;98.40;;;;;;9179511;19;20018;-74
2022/01/03 00:37:38;;;;;;;1.75;0.65;;;11.30;98.40;;;;;;9177990;19;20022;-74
2022/01/03 00:40:43;;;;;;;1.15;0.63;;;11.30;98.40;;;;;;9179482;19;20368;-74
2022/01/03 00:43:48;;;;;;;0.82;0.60;;;11.30;98.40;;;;;;9176467;19;20014;-74
2022/01/03 00:46:55;;;;;;;2.10;0.80;;;11.30;98.40;;;;;;9177083;19;20026;-74
2022/01/03 00:50:01;;;;;;;0.75;0.45;;;11.30;98.40;;;;;;9174083;19;20368;-74
2022/01/03 00:53:09;;;;;;;1.45;0.63;;;11.30;98.40;;;;;;9170673;19;20018;-74
2022/01/03 00:56:17;;;;;;;2.15;0.60;;;11.30;98.40;;;;;;9175112;19;20086;-74
2022/01/03 00:59:26;;;;;;;2.13;0.65;;;11.30;98.40;;;;;;9173950;19;20023;-74
2022/01/03 01:02:38;;;;;;;2.20;0.60;;;11.30;98.40;;;;;;9175113;19;20025;-74
2022/01/03 01:05:46;;;;;;;2.70;1.10;;;11.30;98.30;;;;;;9174471;19;20025;-74
2022/01/03 01:08:57;;;;;;;1.25;0.60;;;11.30;98.30;;;;;;9173072;19;20019;-74
2022/01/03 01:12:03;;;;;;;1.55;0.57;;;11.30;98.30;;;;;;9172465;19;20014;-74
2022/01/03 01:15:17;;;;;;;2.92;0.68;;;11.30;98.30;;;;;;9173286;19;20081;-74
2022/01/03 01:18:25;;;;;;;1.52;0.70;;;11.30;98.30;;;;;;9174753;19;20039;-74
2022/01/03 01:21:30;;;;;;;1.98;0.70;;;11.30;98.30;;;;;;9172739;19;20511;-74
2022/01/03 01:24:48;;;;;;;2.95;0.40;;;11.30;98.60;;;;;;9172798;19;20052;-75
2022/01/03 01:27:53;;;;;;;0.90;0.55;;;11.30;98.30;;;;;;9173432;19;20025;-74
2022/01/03 01:31:02;;;;;;;1.60;0.90;;;11.30;98.30;;;;;;9173068;19;20018;-74
2022/01/03 01:34:09;;;;;;;1.70;0.65;;;11.30;98.30;;;;;;9172991;19;20351;-74
2022/01/03 01:37:18;;;;;;;1.73;0.88;;;11.30;98.30;;;;;;9173554;19;20099;-74
2022/01/03 01:40:27;;;;;;;3.53;0.93;;;11.30;98.30;;;;;;9172641;19;20014;-75
2022/01/03 01:43:39;;;;;;;1.77;0.68;;;11.30;98.30;;;;;;9173435;19;20434;-74
2022/01/03 01:46:48;;;;;;;2.35;0.75;;;11.30;98.30;;;;;;9172789;19;20022;-74
2022/01/03 01:49:56;;;;;;;1.65;0.73;;;11.30;98.30;;;;;;9173517;19;20019;-74
2022/01/03 01:53:07;;;;;;;1.45;0.73;;;11.30;98.30;;;;;;9169829;19;20627;-74
2022/01/03 01:56:19;;;;;;;2.05;0.80;;;11.30;98.30;;;;;;9174178;19;20022;-75
2022/01/03 01:59:33;;;;;;;1.40;0.65;;;11.30;98.30;;;;;;9174382;19;20284;-75
2022/01/03 02:02:46;;;;;;;2.38;0.93;;;11.30;98.20;;;;;;9171581;19;20015;-75
2022/01/03 02:05:59;;;;;;;;;;;11.30;98.20;;;;;;9175978;19;20081;-75
2022/01/03 02:09:08;;;;;;;1.65;0.80;;;11.30;98.20;;;;;;9173778;19;19951;-74
2022/01/03 02:12:19;;;;;;;2.90;1.05;;;11.30;98.30;;;;;;9175467;19;20022;-74
2022/01/03 02:15:24;;;;;;;1.95;0.93;;;11.30;98.30;;;;;;9175274;19;20053;-74
2022/01/03 02:18:29;;;;;;;1.95;0.68;;;11.30;98.30;;;;;;9172834;19;20019;-74
2022/01/03 02:21:37;;;;;;;2.97;1.02;;;11.30;98.30;;;;;;9174826;19;20018;-73
2022/01/03 02:24:46;;;;;;;2.92;1.20;;;11.30;98.20;;;;;;9175126;19;20471;-74
2022/01/03 02:27:56;;;;;;;2.15;1.10;;;11.30;98.20;;;;;;9175774;19;20022;-74
2022/01/03 02:31:02;;;;;;;1.90;0.90;;;11.30;98.20;;;;;;9172230;19;20355;-74
2022/01/03 02:34:07;;;;;;;2.17;0.82;;;11.30;98.20;;;;;;9174196;19;20029;-74
2022/01/03 02:37:16;;;;;;;2.25;1.00;;;11.20;98.20;;;;;;9171603;19;20025;-74
2022/01/03 02:40:22;;;;;;;3.72;1.23;;;11.20;98.20;;;;;;9171882;19;20480;-74
2022/01/03 02:43:30;;;;;;;1.35;0.73;;;11.20;98.20;;;;;;9171775;19;20102;-74
2022/01/03 02:46:37;;;;;;;3.15;1.25;;;11.20;98.20;;;;;;9172701;19;20019;-74
2022/01/03 02:49:43;;;;;;;2.65;1.20;;;11.20;98.20;;;;;;9172246;19;20022;-74
2022/01/03 02:52:51;;;;;;;1.88;0.82;;;11.20;98.20;;;;;;9171941;19;20074;-74
2022/01/03 02:55:58;;;;;;;2.28;1.05;;;11.20;98.10;;;;;;9172848;19;20022;-77
2022/01/03 02:59:04;;;;;;;2.80;1.00;;;11.20;98.20;;;;;;9171404;19;20024;-73
2022/01/03 03:02:09;;;;;;;4.22;1.20;;;11.20;98.20;;;;;;9172447;19;20678;-74
2022/01/03 03:05:15;;;;;;;3.45;1.38;;;11.20;98.20;;;;;;9180489;19;20840;-74
2022/01/03 03:08:23;;;;;;;4.10;1.38;;;11.20;98.20;;;;;;9180524;19;20486;-74
2022/01/03 03:11:29;;;;;;;2.35;1.00;;;11.20;98.10;;;;;;9183017;19;20015;-74
2022/01/03 03:14:34;;;;;;;2.70;1.00;;;11.20;98.10;;;;;;9185633;19;20048;-74
2022/01/03 03:17:40;;;;;;;2.22;1.10;;;11.20;98.10;;;;;;9181388;19;20048;-74
2022/01/03 03:20:46;;;;;;;3.85;1.52;;;11.20;98.10;;;;;;9183052;19;20044;-74
2022/01/03 03:23:54;;;;;;;3.20;1.23;;;11.20;98.10;;;;;;9179363;19;20045;-74
2022/01/03 03:26:59;;;;;;;3.40;1.40;;;11.20;98.10;;;;;;9178736;19;20025;-75
2022/01/03 03:30:05;;;;;;;3.00;1.20;;;11.10;98.10;;;;;;9179496;19;20018;-74
2022/01/03 03:33:13;;;;;;;3.00;1.30;;;11.10;98.10;;;;;;9179500;19;20010;-74
2022/01/03 03:36:22;;;;;;;2.92;1.10;;;11.10;98.10;;;;;;9179267;19;20010;-74
2022/01/03 03:39:31;;;;;;;3.00;1.20;;;11.10;98.10;;;;;;9178673;19;20028;-74
2022/01/03 03:42:38;;;;;;;3.75;1.35;;;11.10;98.10;;;;;;9177945;19;20029;-73
2022/01/03 03:45:43;;;;;;;3.17;1.10;;;11.10;98.10;;;;;;9179179;19;20018;-74
2022/01/03 03:48:48;;;;;;;3.63;1.13;;;11.10;98.10;;;;;;9178980;19;20030;-74
2022/01/03 03:51:58;;;;;;;3.65;1.40;;;11.10;98.10;;;;;;9178979;19;20016;-76
2022/01/03 03:55:07;;;;;;;3.15;1.23;;;11.10;98.10;;;;;;9175891;19;20026;-74
2022/01/03 03:58:14;;;;;;;3.60;1.38;;;11.10;98.10;;;;;;9177979;19;20606;-76
2022/01/03 04:01:19;;;;;;;2.95;1.33;;;11.10;98.10;;;;;;9179145;19;20368;-74
2022/01/03 04:04:30;;;;;;;2.55;1.10;;;11.00;98.10;;;;;;9178699;19;20014;-76
2022/01/03 04:07:36;;;;;;;4.38;1.35;;;11.10;98.10;;;;;;9179338;19;20021;-76
2022/01/03 04:10:43;;;;;;;5.20;1.50;;;11.00;98.10;;;;;;9178917;19;20122;-76
2022/01/03 04:13:49;;;;;;;3.45;1.60;;;11.00;98.10;;;;;;9178908;19;20081;-76
2022/01/03 04:16:55;;;;;;;3.95;1.40;;;11.00;98.10;;;;;;9178665;19;20026;-76
2022/01/03 04:20:01;;;;;;;3.83;1.30;;;11.00;98.10;;;;;;9177974;19;20361;-74
2022/01/03 04:23:06;;;;;;;4.20;1.17;;;11.00;98.10;;;;;;9179272;19;20010;-74
2022/01/03 04:26:14;;;;;;;4.10;1.13;;;10.90;98.00;;;;;;9179336;19;20014;-74
2022/01/03 04:29:19;;;;;;;2.63;0.98;;;11.00;98.10;;;;;;9180902;19;20032;-74
2022/01/03 04:32:24;;;;;;;4.05;1.17;;;11.00;98.10;;;;;;9178009;19;20022;-74
2022/01/03 04:35:29;;;;;;;3.53;1.30;;;11.00;98.10;;;;;;9180662;19;20010;-74
2022/01/03 04:38:34;;;;;;;4.22;1.55;;;10.90;98.10;;;;;;9178234;19;20014;-74
2022/01/03 04:41:42;;;;;;;3.22;1.13;;;10.90;98.10;;;;;;9179029;19;20022;-74
2022/01/03 04:44:48;;;;;;;3.67;1.55;;;10.90;98.10;;;;;;9178661;19;20025;-74
2022/01/03 04:47:54;;;;;;;2.60;1.23;;;11.00;98.10;;;;;;9180119;19;20340;-74
2022/01/03 04:50:59;;;;;;;3.45;1.17;;;10.90;98.10;;;;;;9176369;19;20022;-75
2022/01/03 04:54:06;;;;;;;3.95;1.42;;;10.90;98.40;;;;;;9173271;19;20015;-74
2022/01/03 04:57:14;;;;;;;2.95;1.20;;;10.90;98.10;;;;;;9176417;19;20011;-74
2022/01/03 05:00:20;;;;;;;2.65;1.40;;;10.90;98.10;;;;;;9177560;19;20006;-75
2022/01/03 05:03:25;;;;;;;3.45;1.38;;;10.90;98.10;;;;;;9176709;19;20021;-75
2022/01/03 05:06:31;;;;;;;4.10;1.38;;;10.90;98.10;;;;;;9175490;19;20025;-75
2022/01/03 05:09:37;;;;;;;3.80;1.60;;;10.90;98.10;;;;;;9175724;19;20475;-74
2022/01/03 05:12:44;;;;;;;3.78;1.50;;;10.90;98.10;;;;;;9176207;19;20019;-75
2022/01/03 05:15:50;;;;;;;2.50;1.35;;;10.90;98.10;;;;;;9176066;19;20014;-75
2022/01/03 05:18:55;;;;;;;3.03;1.20;;;11.00;98.10;;;;;;9176515;19;20010;-75
2022/01/03 05:22:00;;;;;;;2.30;1.05;;;10.90;98.10;;;;;;9174690;19;20019;-75
2022/01/03 05:25:09;;;;;;;4.07;1.20;;;10.90;98.10;;;;;;9175681;19;20507;-75
2022/01/03 05:28:17;;;;;;;4.75;1.67;;;11.00;98.10;;;;;;9174025;19;20015;-75
2022/01/03 05:31:22;;;;;;;3.55;1.38;;;11.00;98.10;;;;;;9176356;19;20336;-75
2022/01/03 05:34:28;;;;;;;5.05;1.40;;;11.00;98.10;;;;;;9176042;19;20070;-74
2022/01/03 05:37:34;;;;;;;2.58;1.00;;;11.00;98.10;;;;;;9177393;19;20332;-75
2022/01/03 05:40:40;;;;;;;3.65;1.20;;;11.00;98.10;;;;;;9174957;19;20015;-75
2022/01/03 05:43:49;;;;;;;4.00;1.67;;;11.00;98.10;;;;;;9176870;19;20417;-75
2022/01/03 05:46:54;;;;;;;4.07;1.88;;;11.00;98.10;;;;;;9176020;19;20014;-74
2022/01/03 05:50:00;;;;;;;3.42;1.25;;;11.00;98.10;;;;;;9176411;19;20340;-75
2022/01/03 05:53:07;;;;;;;3.40;1.58;;;11.00;98.10;;;;;;9172711;19;20506;-74
2022/01/03 05:56:12;;;;;;;3.55;1.52;;;11.00;98.00;;;;;;9175926;19;20014;-74
2022/01/03 05:59:21;;;;;;;3.78;1.30;;;11.00;98.10;;;;;;9175799;19;20791;-74
2022/01/03 06:02:29;;;;;;;4.95;1.67;;;11.00;98.00;;;;;;9175500;19;20574;-74
2022/01/03 06:06:04;;;;;;;3.72;1.30;;;11.00;98.10;;;;;;9175637;19;20011;-75
2022/01/03 06:09:09;;;;;;;3.30;1.17;;;11.00;98.10;;;;;;9176246;19;20014;-75
2022/01/03 06:12:16;;;;;;;3.95;1.58;;;11.00;98.10;;;;;;9175063;19;20026;-75
2022/01/03 06:15:27;;;;;;;3.13;1.27;;;10.90;98.10;;;;;;9174966;19;20519;-75
2022/01/03 06:18:32;;;;;;;4.45;1.48;;;11.00;98.10;;;;;;9174264;19;20026;-74
2022/01/03 06:21:43;;;;;;;2.25;1.08;;;11.00;98.10;;;;;;9175207;19;20384;-75
2022/01/03 06:24:51;;;;;;;4.22;1.58;;;10.90;98.00;;;;;;9174497;19;20022;-75
2022/01/03 06:27:57;;;;;;;4.53;1.55;;;10.90;98.00;;;;;;9174562;19;20018;-74
2022/01/03 06:31:05;;;;;;;4.75;1.65;;;10.90;98.00;;;;;;9171431;19;20510;-75
2022/01/03 06:34:10;;;;;;;3.78;1.30;;;10.90;98.00;;;;;;9172600;19;20021;-75
2022/01/03 06:37:15;;;;;;;5.15;1.90;;;10.90;98.00;;;;;;9172431;19;20010;-75
2022/01/03 06:40:31;;;;;;;4.28;1.52;;;10.90;98.00;;;;;;9179645;19;20023;-74
2022/01/03 06:43:36;;;;;;;3.72;1.40;;;10.90;98.00;;;;;;9180675;19;20053;-74
2022/01/03 06:46:45;;;;;;;4.75;1.58;;;10.80;98.00;;;;;;9181492;19;20011;-74
2022/01/03 06:49:50;;;;;;;2.53;0.80;;;10.80;98.00;;;;;;9182664;19;20074;-75
2022/01/03 06:52:55;;;;;;;4.97;1.67;;;10.80;98.00;;;;;;9178236;19;20400;-74
2022/01/03 06:56:01;;;;;;;4.82;1.50;;;10.80;98.00;;;;;;9180908;19;20014;-74
2022/01/03 06:59:07;;;;;;;4.80;1.50;;;10.80;98.00;;;;;;9180368;19;20010;-75
2022/01/03 07:02:15;;;;;;;3.63;1.45;;;10.80;98.00;;;;;;9179175;19;20459;-75
2022/01/03 07:05:20;;;;;;;3.50;1.23;;;10.80;98.30;;;;;;9178920;19;20365;-74
2022/01/03 07:08:25;;;;;;;3.80;1.50;;;10.80;98.00;;;;;;9180436;19;20070;-75
2022/01/03 07:11:30;;;;;;;4.55;1.52;;;10.80;98.00;;;;;;9181057;19;20033;-74
2022/01/03 07:21:14;;;;;;;3.80;1.20;;;10.70;97.90;;;;;;9171774;19;20021;-74
2022/01/03 07:24:19;;;;;;;3.30;1.17;;;10.70;97.90;;;;;;9173347;19;20015;-74
2022/01/03 07:27:24;;;;;;;3.78;1.45;;;10.70;98.00;;;;;;9176336;19;20029;-74
2022/01/03 07:30:29;;;;;;;3.75;1.45;;;10.70;98.00;;;;;;9173363;19;20022;-73
2022/01/03 07:33:37;;;;;;;4.70;1.42;;;10.70;98.00;;;;;;9173599;19;20007;-75
2022/01/03 07:36:42;;;;;;;4.40;1.10;;;10.70;98.00;;;;;;9177635;19;20014;-74
2022/01/03 07:39:47;;;;;;;4.55;1.48;;;10.60;97.90;;;;;;9180765;19;20126;-75
2022/01/03 07:42:52;;;;;;;2.22;1.05;;;10.60;98.00;;;;;;9180691;19;20026;-75
2022/01/03 07:45:57;;;;;;;3.85;1.50;;;10.70;98.00;;;;;;9179592;19;20019;-76
2022/01/03 07:49:05;;;;;;;3.67;1.30;;;10.60;98.00;;;;;;9179217;19;20468;-75
2022/01/03 07:52:10;;;;;;;3.85;1.42;;;10.70;98.00;;;;;;9167185;19;20022;-75
2022/01/03 07:55:16;;;;;;;3.65;1.45;;;10.60;98.00;;;;;;9169705;19;20792;-75
2022/01/03 07:58:21;;;;;;;3.47;1.25;;;10.70;98.10;;;;;;9176038;19;20022;-75
2022/01/03 08:01:26;;;;;;;3.38;1.08;;;10.70;98.10;;;;;;9173605;19;20018;-76
2022/01/03 08:04:35;;;;;;;5.00;1.45;;;10.70;98.10;;;;;;9177407;19;20019;-75
2022/01/03 08:07:41;;;;;;;3.30;1.25;;;10.70;98.10;;;;;;9175582;19;20014;-75
2022/01/03 08:10:52;;;;;;;2.45;0.98;;;10.70;98.10;;;;;;9176121;19;20022;-75
2022/01/03 08:13:57;;;;;;;3.42;1.45;;;10.80;98.10;;;;;;9167635;19;20022;-75
2022/01/03 08:17:03;;;;;;;3.25;0.93;;;10.80;98.10;;;;;;9175868;19;20030;-76
2022/01/03 08:20:12;;;;;;;3.55;1.30;;;10.80;98.10;;;;;;9176060;19;20014;-76
2022/01/03 08:23:17;;;;;;;3.85;1.38;;;10.80;98.40;;;;;;9175652;19;20007;-76
2022/01/03 08:26:21;;;;;;;4.20;1.20;;;10.80;98.10;;;;;;9177373;19;20021;-76
2022/01/03 08:29:26;;;;;;;3.50;1.20;;;10.90;98.10;;;;;;9174632;19;20487;-73
2022/01/03 08:32:32;;;;;;;2.72;1.17;;;10.90;98.10;;;;;;9177238;19;20025;-76
2022/01/03 08:35:39;;;;;;;4.15;1.45;;;10.90;98.10;;;;;;9176163;19;20029;-74
2022/01/03 08:38:44;;;;;;;3.05;1.20;;;10.90;98.10;;;;;;9177300;19;20026;-73
2022/01/03 08:41:49;;;;;;;2.70;1.20;;;11.00;98.10;;;;;;9175101;19;20018;-74
2022/01/03 08:44:54;;;;;;;3.63;1.52;;;11.00;98.10;;;;;;9174504;19;20514;-74
2022/01/03 08:48:00;;;;;;;2.95;1.50;;;11.00;98.10;;;;;;9176532;19;20057;-74
2022/01/03 08:51:07;;;;;;;3.22;1.30;;;11.00;98.10;;;;;;9177880;19;20046;-76
2022/01/03 08:54:13;;;;;;;4.10;1.30;;;11.00;98.10;;;;;;9174992;19;20022;-77
2022/01/03 08:57:18;;;;;;;3.13;1.20;;;11.00;98.10;;;;;;9174377;19;20464;-74
2022/01/03 09:00:23;;;;;;;2.03;1.00;;;11.10;98.10;;;;;;9176971;19;20018;-74
2022/01/03 09:03:28;;;;;;;2.80;1.13;;;11.10;98.10;;;;;;9176806;19;20015;-74
2022/01/03 09:06:36;;;;;;;3.50;1.30;;;11.10;98.10;;;;;;9175118;19;20018;-73
2022/01/03 09:09:41;;;;;;;2.83;1.15;;;11.10;98.10;;;;;;9173674;19;20026;-75
2022/01/03 09:12:47;;;;;;;2.58;1.10;;;11.10;98.10;;;;;;9174472;19;20017;-75
2022/01/03 09:15:52;;;;;;;2.80;1.33;;;11.10;98.10;;;;;;9173000;19;20022;-74
2022/01/03 09:18:57;;;;;;;3.10;1.10;;;11.10;98.10;;;;;;9174012;19;20018;-74
2022/01/03 09:22:13;;;;;;;2.75;0.95;;;11.20;98.10;;;;;;9174871;19;20017;-75
2022/01/03 09:31:55;;;;;;;2.72;1.02;;;11.20;98.00;;;;;;9173789;19;20021;-75
2022/01/03 09:35:00;;;;;;;2.90;1.00;;;11.20;98.00;;;;;;9172851;19;20022;-74
2022/01/03 09:38:08;;;;;;;2.75;1.20;;;11.30;98.10;;;;;;9172862;19;20491;-74
2022/01/03 09:41:14;;;;;;;2.53;1.17;;;11.20;98.00;;;;;;9173548;19;20498;-75
2022/01/03 09:44:19;;;;;;;3.63;1.40;;;11.30;98.00;;;;;;9171664;19;20014;-74
2022/01/03 09:47:25;;;;;;;2.97;1.10;;;11.30;98.00;;;;;;9174811;19;20030;-75
2022/01/03 09:50:33;;;;;;;2.45;1.10;;;11.30;98.00;;;;;;9172798;19;20414;-74
2022/01/03 09:53:42;;;;;;;3.03;1.15;;;11.30;98.00;;;;;;9170342;19;20018;-73
2022/01/03 09:56:48;;;;;;;2.00;1.15;;;11.40;98.00;;;;;;9173561;19;20006;-74
2022/01/03 09:59:53;;;;;;;3.30;1.42;;;11.40;98.00;;;;;;9172998;19;20019;-75
2022/01/03 10:03:04;;;;;;;3.05;1.00;;;11.40;98.00;;;;;;9174855;19;20053;-74
2022/01/03 10:06:10;;;;;;;3.42;1.00;;;11.40;98.00;;;;;;9173420;19;20011;-73
2022/01/03 10:09:19;;;;;;;2.70;0.98;;;11.40;98.00;;;;;;9174234;19;20582;-77
2022/01/03 10:12:24;;;;;;;2.55;1.23;;;11.40;97.90;;;;;;9175147;19;20027;-76
2022/01/03 10:15:29;;;;;;;4.22;1.40;;;11.40;98.00;;;;;;9182534;19;20477;-77
2022/01/03 10:18:35;;;;;;;4.43;1.60;;;11.40;98.00;;;;;;9183546;19;20019;-74
2022/01/03 10:21:42;;;;;;;2.50;1.02;;;11.50;98.00;;;;;;9181346;19;20015;-74
2022/01/03 10:24:50;;;;;;;2.58;1.10;;;11.50;98.00;;;;;;9183045;19;20018;-74
2022/01/03 10:27:59;;;;;;;2.58;1.02;;;11.50;98.00;;;;;;9182332;19;20022;-74
2022/01/03 10:31:04;;;;;;;2.75;0.95;;;11.60;98.00;;;;;;9182154;19;20014;-74
2022/01/03 10:34:11;;;;;;;2.70;1.17;;;11.60;98.00;;;;;;9182519;19;20379;-74
2022/01/03 10:37:17;;;;;;;2.90;1.15;;;11.60;98.00;;;;;;9180390;19;20026;-74
2022/01/03 10:40:29;;;;;;;2.65;0.90;;;11.60;98.00;;;;;;9179883;19;20029;-74
2022/01/03 10:43:37;;;;;;;2.17;1.00;;;11.70;97.90;;;;;;9176129;19;20007;-74
2022/01/03 10:46:51;;;;;;;3.25;1.30;;;11.70;97.90;;;;;;9178490;19;20019;-73
2022/01/03 10:49:56;;;;;;;2.45;1.20;;;11.70;97.90;;;;;;9179667;19;20017;-74
2022/01/03 10:53:01;;;;;;;4.03;1.35;;;11.70;97.90;;;;;;9173920;19;20022;-74
2022/01/03 10:56:32;;;;;;;2.17;0.88;;;11.80;97.90;;;;;;9177034;19;20022;-75
2022/01/03 10:59:40;;;;;;;1.55;0.73;;;11.80;97.80;;;;;;9176039;19;20018;-74
2022/01/03 11:03:17;;;;;;;1.50;0.70;;;11.80;97.90;;;;;;9176633;19;20027;-74
2022/01/03 11:06:46;;;;;;;2.58;0.98;;;11.80;97.70;;;;;;9180434;19;20022;-73
2022/01/03 11:13:30;;;;;;;2.95;1.10;;;11.80;97.70;;;;;;9179215;19;20023;-75
2022/01/03 11:16:39;;;;;;;3.40;1.33;;;11.80;97.80;;;;;;9180791;19;20034;-74
2022/01/03 11:19:45;;;;;;;3.28;1.33;;;11.80;97.80;;;;;;9179648;19;20018;-74
2022/01/03 11:22:52;;;;;;;2.20;1.00;;;11.80;97.70;;;;;;9178396;19;20022;-75
2022/01/03 11:25:58;;;;;;;2.58;1.20;;;11.80;97.70;;;;;;9178145;19;20030;-75
2022/01/03 11:29:06;;;;;;;2.67;1.30;;;11.80;97.70;;;;;;9180052;19;20018;-74
2022/01/03 11:32:13;;;;;;;2.92;1.05;;;11.80;97.70;;;;;;9181842;19;20024;-74
2022/01/03 11:35:18;;;;;;;2.42;1.00;;;11.80;97.60;;;;;;9179808;19;20026;-74
2022/01/03 11:38:26;;;;;;;3.15;1.20;;;11.90;97.70;;;;;;9179575;19;20024;-74
2022/01/03 11:41:31;;;;;;;2.15;0.98;;;11.90;97.70;;;;;;9179516;19;20761;-75
2022/01/03 11:44:41;;;;;;;2.97;1.20;;;11.90;97.70;;;;;;9178288;19;20021;-75
2022/01/03 11:47:47;;;;;;;3.15;1.15;;;11.90;97.60;;;;;;9178342;19;20723;-75
2022/01/03 11:50:53;;;;;;;1.30;0.70;;;11.90;97.60;;;;;;9177453;19;20018;-74
2022/01/03 11:54:00;;;;;;;2.47;1.15;;;11.90;97.60;;;;;;9172976;19;20014;-74
2022/01/03 11:57:11;;;;;;;2.67;1.13;;;11.90;97.60;;;;;;9175045;19;20368;-75
2022/01/03 12:03:47;;;;;;;3.08;0.90;;;11.90;97.60;;;;;;9170639;19;20022;-75
2022/01/03 12:07:05;;;;;;;2.45;1.25;;;11.90;97.60;;;;;;9171706;19;20022;-74
2022/01/03 12:10:12;;;;;;;2.75;1.10;;;12.00;97.50;;;;;;9170450;19;20017;-74
2022/01/03 12:13:19;;;;;;;2.40;0.98;;;12.00;97.60;;;;;;9168914;19;20022;-74
2022/01/03 12:16:54;;;;;;;2.88;1.60;;;12.00;97.60;;;;;;9172875;19;20022;-74
2022/01/03 12:20:06;;;;;;;1.75;0.75;;;12.00;97.40;;;;;;9172895;19;20524;-74
2022/01/03 12:23:13;;;;;;;2.83;1.10;;;12.00;97.50;;;;;;9167150;19;20015;-74
2022/01/03 12:26:23;;;;;;;4.18;1.50;;;12.00;97.60;;;;;;9168151;19;20022;-74
2022/01/03 12:29:28;;;;;;;4.70;1.10;;;12.00;97.60;;;;;;9175842;19;20022;-74
2022/01/03 12:32:40;;;;;;;2.75;1.02;;;12.00;97.50;;;;;;9175531;19;20014;-74
2022/01/03 12:35:47;;;;;;;3.55;1.10;;;12.00;97.50;;;;;;9176243;19;20033;-74
2022/01/03 12:39:09;;;;;;;2.30;1.00;;;12.00;97.50;;;;;;9176845;19;20089;-74
2022/01/03 12:42:44;;;;;;;3.15;1.25;;;12.00;97.40;;;;;;9176244;19;20014;-74
2022/01/03 12:45:56;;;;;;;3.20;1.40;;;12.00;97.50;;;;;;9176456;19;20024;-74
2022/01/03 12:49:30;;;;;;;3.78;1.25;;;12.10;97.50;;;;;;9175433;19;20021;-74
2022/01/03 12:52:42;;;;;;;2.63;1.07;;;12.10;97.50;;;;;;9160655;19;20017;-74
2022/01/03 12:55:48;;;;;;;2.63;1.17;;;12.10;97.60;;;;;;9160313;19;20520;-74
2022/01/03 12:58:56;;;;;;;2.75;1.23;;;12.20;97.60;;;;;;9168070;19;20018;-74
2022/01/03 13:02:26;;;;;;;3.10;1.38;;;12.20;97.60;;;;;;9167671;19;20111;-73
2022/01/03 13:05:31;;;;;;;2.25;1.23;;;12.20;97.40;;;;;;9168078;19;20208;-74
2022/01/03 13:08:40;;;;;;;3.15;1.30;;;12.20;97.60;;;;;;9169043;19;20677;-74
2022/01/03 13:11:47;;;;;;;2.55;1.30;;;12.30;97.50;;;;;;9167791;19;20019;-74
2022/01/03 13:14:51;;;;;;;2.35;1.08;;;12.30;97.50;;;;;;9168305;19;20436;-74
2022/01/03 13:18:20;;;;;;;4.13;1.33;;;12.30;97.50;;;;;;9167693;19;20494;-73
2022/01/03 13:21:27;;;;;;;2.60;1.00;;;12.30;97.30;;;;;;9169887;19;20047;-74
2022/01/03 13:24:34;;;;;;;3.30;1.30;;;12.30;97.50;;;;;;9168394;19;20022;-73
2022/01/03 13:27:39;;;;;;;2.83;1.20;;;12.30;97.40;;;;;;9167502;19;20399;-74
2022/01/03 13:31:02;;;;;;;2.92;1.23;;;12.30;97.40;;;;;;9167643;19;20029;-74
2022/01/03 13:34:10;;;;;;;2.78;0.95;;;12.30;97.20;;;;;;9169293;19;20010;-74
2022/01/03 13:37:15;;;;;;;3.10;1.17;;;12.30;97.30;;;;;;9168072;19;20027;-74
2022/01/03 13:40:24;;;;;;;2.95;1.25;;;12.30;97.50;;;;;;9167917;19;20401;-74
2022/01/03 13:43:31;;;;;;;2.72;1.20;;;12.30;97.20;;;;;;9168290;19;20592;-74
2022/01/03 13:49:57;;;;;;;5.20;1.50;;;12.30;97.20;;;;;;9168844;19;20471;-74
2022/01/03 13:53:07;;;;;;;2.80;1.17;;;12.30;97.10;;;;;;9163115;19;20464;-74
2022/01/03 13:56:12;;;;;;;2.30;1.02;;;12.20;97.10;;;;;;9168726;19;20030;-74
2022/01/03 13:59:18;;;;;;;4.38;1.27;;;12.20;97.10;;;;;;9169157;19;20023;-75
2022/01/03 14:02:23;;;;;;;3.08;1.20;;;12.20;97.10;;;;;;9167721;19;20026;-74
2022/01/03 14:05:31;;;;;;;2.38;1.05;;;12.20;97.20;;;;;;9166209;19;20452;-74
2022/01/03 14:08:40;;;;;;;3.10;0.93;;;12.10;97.10;;;;;;9165347;19;20018;-75
2022/01/03 14:11:46;;;;;;;2.30;1.20;;;12.10;97.10;;;;;;9166364;19;20455;-74
2022/01/03 14:14:55;;;;;;;4.43;1.23;;;12.10;97.10;;;;;;9166930;19;20021;-74
2022/01/03 14:18:01;;;;;;;2.47;1.05;;;12.10;97.10;;;;;;9166914;19;20018;-74
2022/01/03 14:21:14;;;;;;;2.35;0.93;;;12.00;97.10;;;;;;9169047;19;20015;-74
2022/01/03 14:24:23;;;;;;;2.28;0.70;;;12.00;97.00;;;;;;9165704;19;20022;-74
2022/01/03 14:27:32;;;;;;;1.92;0.82;;;12.00;97.00;;;;;;9166999;19;20022;-74
2022/01/03 14:30:39;;;;;;;2.45;1.05;;;11.90;97.00;;;;;;9166516;19;20007;-75
2022/01/03 14:33:44;;;;;;;4.03;1.30;;;11.90;97.00;;;;;;9165063;19;20078;-75
2022/01/03 14:36:53;;;;;;;3.13;1.10;;;11.80;97.00;;;;;;9167084;19;20019;-74
2022/01/03 14:39:58;;;;;;;1.95;0.82;;;11.80;97.00;;;;;;9166863;19;20026;-74
2022/01/03 14:43:08;;;;;;;2.55;0.95;;;11.80;97.00;;;;;;9165267;19;20606;-74
2022/01/03 14:46:13;;;;;;;5.05;0.88;;;11.80;97.00;;;;;;9168423;19;20018;-74
2022/01/03 14:49:21;;;;;;;2.65;0.93;;;11.70;97.20;;;;;;9167037;19;20652;-74
2022/01/03 14:52:36;;;;;;;3.67;1.60;;;11.70;97.00;;;;;;9166570;19;20014;-74
2022/01/03 14:55:44;;;;;;;2.47;1.05;;;11.70;96.90;;;;;;9166410;19;20018;-74
2022/01/03 14:58:49;;;;;;;2.60;1.02;;;11.60;97.00;;;;;;9170245;19;20018;-75
2022/01/03 15:01:57;;;;;;;2.97;0.80;;;11.60;97.00;;;;;;9177152;19;20034;-75
2022/01/03 15:05:05;;;;;;;2.60;0.88;;;11.60;97.00;;;;;;9176061;19;20048;-75
2022/01/03 15:08:14;;;;;;;3.30;1.08;;;11.50;97.00;;;;;;9174476;19;20029;-75
2022/01/03 15:11:21;;;;;;;2.40;1.13;;;11.50;97.00;;;;;;9174087;19;20021;-76
2022/01/03 15:14:26;;;;;;;3.28;1.00;;;11.40;97.00;;;;;;9175123;19;20018;-74
2022/01/03 15:17:32;;;;;;;1.77;0.70;;;11.40;97.00;;;;;;9175347;19;20059;-75
2022/01/03 15:20:37;;;;;;;2.75;0.77;;;11.30;96.90;;;;;;9174498;19;20494;-75
2022/01/03 15:23:45;;;;;;;3.47;1.15;;;11.30;97.00;;;;;;9176325;19;20019;-75
2022/01/03 15:26:50;;;;;;;2.67;1.17;;;11.30;96.90;;;;;;9175832;19;20022;-75
2022/01/03 15:29:55;;;;;;;2.20;1.02;;;11.20;97.00;;;;;;9177272;19;20052;-75
2022/01/03 15:33:00;;;;;;;3.63;1.13;;;11.20;97.00;;;;;;9175398;19;20033;-75
2022/01/03 15:36:06;;;;;;;3.90;1.40;;;11.10;97.00;;;;;;9177825;19;20094;-75
2022/01/03 15:39:13;;;;;;;3.05;1.00;;;11.10;97.00;;;;;;9176605;19;20487;-75
2022/01/03 15:42:18;;;;;;;3.08;1.13;;;11.00;96.90;;;;;;9176601;19;20023;-75
2022/01/03 15:45:24;;;;;;;2.20;0.95;;;11.00;97.00;;;;;;9174065;19;20014;-75
2022/01/03 15:48:29;;;;;;;3.15;1.00;;;11.00;97.00;;;;;;9176372;19;20459;-75
2022/01/03 15:51:34;;;;;;;2.40;0.95;;;10.90;97.00;;;;;;9172649;19;20018;-75
2022/01/03 15:54:43;;;;;;;2.15;1.15;;;10.90;97.00;;;;;;9172476;19;20018;-75
2022/01/03 15:57:48;;;;;;;2.85;1.00;;;10.90;97.00;;;;;;9175851;19;20107;-75
2022/01/03 16:00:54;;;;;;;2.65;0.80;;;10.90;97.00;;;;;;9175861;19;20534;-76
2022/01/03 16:04:01;;;;;;;2.80;0.90;;;10.80;97.00;;;;;;9179385;19;20018;-75
2022/01/03 16:07:07;;;;;;;4.88;1.35;;;10.80;97.00;;;;;;9184028;19;20037;-75
2022/01/03 16:10:15;;;;;;;2.97;0.98;;;10.80;97.00;;;;;;9181805;19;20125;-75
2022/01/03 16:13:21;;;;;;;1.70;0.70;;;10.80;97.10;;;;;;9181502;19;20482;-75
2022/01/03 16:16:26;;;;;;;1.63;0.90;;;10.70;97.00;;;;;;9182197;19;20010;-75
2022/01/03 16:19:32;;;;;;;1.95;0.80;;;10.70;97.10;;;;;;9183037;19;20018;-76
2022/01/03 16:22:37;;;;;;;2.10;0.90;;;10.70;97.10;;;;;;9180069;19;20021;-75
2022/01/03 16:25:44;;;;;;;3.83;1.02;;;10.70;97.00;;;;;;9180936;19;20053;-76
2022/01/03 16:28:49;;;;;;;2.75;0.80;;;10.70;97.00;;;;;;9178735;19;20022;-75
2022/01/03 16:31:55;;;;;;;3.40;1.15;;;10.60;96.90;;;;;;9178283;19;20025;-75
2022/01/03 16:35:00;;;;;;;2.35;0.95;;;10.60;96.90;;;;;;9177533;19;20026;-76
2022/01/03 16:38:05;;;;;;;7.70;1.17;;;10.60;96.90;;;;;;9178446;19;20022;-75
2022/01/03 16:41:13;;;;;;;2.33;0.60;;;10.60;96.90;;;;;;9177611;19;20015;-76
2022/01/03 16:44:18;;;;;;;2.50;0.82;;;10.50;96.90;;;;;;9171653;19;20010;-75